sensor_id;sensor_type;location;lat;lon;timestamp;P1;durP1;ratioP1;P2;durP2;ratioP2
7737;SDS011;29398;45.328;5.558;2024-03-02T00:01:02;20.25;;;13.85;;
7737;SDS011;29398;45.328;5.558;2024-03-02T00:02:03;20.98;;;13.13;;
7737;SDS011;29398;45.328;5.558;2024-03-02T00:03:07;20.13;;;12.50;;
7737;SDS011;29398;45.328;5.558;2024-03-02T00:04:09;20.60;;;13.23;;
7737;SDS011;29398;45.328;5.558;2024-03-02T00:05:12;16.08;;;12.50;;
7737;SDS011;29398;45.328;5.558;2024-03-02T00:06:19;18.40;;;13.30;;
7737;SDS011;29398;45.328;5.558;2024-03-02T00:07:22;19.15;;;13.00;;
7737;SDS011;29398;45.328;5.558;2024-03-02T00:08:25;17.10;;;12.45;;
7737;SDS011;29398;45.328;5.558;2024-03-02T00:09:27;19.67;;;13.23;;
7737;SDS011;29398;45.328;5.558;2024-03-02T00:10:30;17.52;;;12.80;;
7737;SDS011;29398;45.328;5.558;2024-03-02T00:11:39;15.38;;;11.18;;
7737;SDS011;29398;45.328;5.558;2024-03-02T00:12:42;16.52;;;11.75;;
7737;SDS011;29398;45.328;5.558;2024-03-02T00:13:43;17.80;;;11.70;;
7737;SDS011;29398;45.328;5.558;2024-03-02T00:14:46;15.95;;;11.93;;
7737;SDS011;29398;45.328;5.558;2024-03-02T00:15:48;19.80;;;11.10;;
7737;SDS011;29398;45.328;5.558;2024-03-02T00:16:52;19.75;;;12.77;;
7737;SDS011;29398;45.328;5.558;2024-03-02T00:17:56;22.75;;;13.57;;
7737;SDS011;29398;45.328;5.558;2024-03-02T00:19:00;20.70;;;13.90;;
7737;SDS011;29398;45.328;5.558;2024-03-02T00:20:03;23.52;;;14.93;;
7737;SDS011;29398;45.328;5.558;2024-03-02T00:21:09;24.90;;;14.52;;
7737;SDS011;29398;45.328;5.558;2024-03-02T00:22:13;26.75;;;15.57;;
7737;SDS011;29398;45.328;5.558;2024-03-02T00:23:14;23.80;;;13.68;;
7737;SDS011;29398;45.328;5.558;2024-03-02T00:24:17;22.02;;;12.57;;
7737;SDS011;29398;45.328;5.558;2024-03-02T00:25:21;21.65;;;11.43;;
7737;SDS011;29398;45.328;5.558;2024-03-02T00:26:22;13.90;;;9.50;;
7737;SDS011;29398;45.328;5.558;2024-03-02T00:27:24;15.40;;;9.48;;
7737;SDS011;29398;45.328;5.558;2024-03-02T00:28:25;16.55;;;9.55;;
7737;SDS011;29398;45.328;5.558;2024-03-02T00:29:28;16.65;;;9.15;;
7737;SDS011;29398;45.328;5.558;2024-03-02T00:30:37;14.48;;;8.93;;
7737;SDS011;29398;45.328;5.558;2024-03-02T00:31:51;11.60;;;8.70;;
7737;SDS011;29398;45.328;5.558;2024-03-02T00:32:53;11.48;;;8.07;;
7737;SDS011;29398;45.328;5.558;2024-03-02T00:33:54;10.55;;;7.75;;
7737;SDS011;29398;45.328;5.558;2024-03-02T00:34:56;10.18;;;7.72;;
7737;SDS011;29398;45.328;5.558;2024-03-02T00:35:57;10.07;;;7.95;;
7737;SDS011;29398;45.328;5.558;2024-03-02T00:37:00;9.25;;;7.40;;
7737;SDS011;29398;45.328;5.558;2024-03-02T00:38:05;8.00;;;6.85;;
7737;SDS011;29398;45.328;5.558;2024-03-02T00:39:06;9.43;;;7.22;;
7737;SDS011;29398;45.328;5.558;2024-03-02T00:40:09;12.90;;;10.20;;
7737;SDS011;29398;45.328;5.558;2024-03-02T00:41:15;13.18;;;10.27;;
7737;SDS011;29398;45.328;5.558;2024-03-02T00:42:20;14.00;;;10.52;;
7737;SDS011;29398;45.328;5.558;2024-03-02T00:43:31;14.40;;;11.23;;
7737;SDS011;29398;45.328;5.558;2024-03-02T00:45:43;16.17;;;10.75;;
7737;SDS011;29398;45.328;5.558;2024-03-02T00:46:44;15.75;;;10.93;;
7737;SDS011;29398;45.328;5.558;2024-03-02T00:47:45;16.88;;;11.40;;
7737;SDS011;29398;45.328;5.558;2024-03-02T00:48:48;16.58;;;11.60;;
7737;SDS011;29398;45.328;5.558;2024-03-02T00:49:54;14.40;;;11.15;;
7737;SDS011;29398;45.328;5.558;2024-03-02T00:50:56;14.98;;;11.48;;
7737;SDS011;29398;45.328;5.558;2024-03-02T00:51:57;15.80;;;11.27;;
7737;SDS011;29398;45.328;5.558;2024-03-02T00:53:01;15.82;;;11.23;;
7737;SDS011;29398;45.328;5.558;2024-03-02T00:54:05;17.55;;;11.60;;
7737;SDS011;29398;45.328;5.558;2024-03-02T00:55:09;15.57;;;11.55;;
7737;SDS011;29398;45.328;5.558;2024-03-02T00:56:10;13.48;;;11.00;;
7737;SDS011;29398;45.328;5.558;2024-03-02T00:57:12;15.27;;;11.63;;
7737;SDS011;29398;45.328;5.558;2024-03-02T00:58:14;16.17;;;11.00;;
7737;SDS011;29398;45.328;5.558;2024-03-02T00:59:16;16.25;;;10.75;;
7737;SDS011;29398;45.328;5.558;2024-03-02T01:00:18;16.20;;;11.43;;
7737;SDS011;29398;45.328;5.558;2024-03-02T01:01:19;19.27;;;11.63;;
7737;SDS011;29398;45.328;5.558;2024-03-02T01:02:22;16.35;;;11.35;;
7737;SDS011;29398;45.328;5.558;2024-03-02T01:03:23;14.48;;;11.75;;
7737;SDS011;29398;45.328;5.558;2024-03-02T01:04:24;17.77;;;11.07;;
7737;SDS011;29398;45.328;5.558;2024-03-02T01:05:26;14.50;;;11.18;;
7737;SDS011;29398;45.328;5.558;2024-03-02T01:06:28;16.35;;;12.05;;
7737;SDS011;29398;45.328;5.558;2024-03-02T01:07:30;14.57;;;10.88;;
7737;SDS011;29398;45.328;5.558;2024-03-02T01:08:31;14.68;;;10.75;;
7737;SDS011;29398;45.328;5.558;2024-03-02T01:09:34;11.52;;;9.38;;
7737;SDS011;29398;45.328;5.558;2024-03-02T01:10:35;11.38;;;8.98;;
7737;SDS011;29398;45.328;5.558;2024-03-02T01:11:37;10.43;;;8.05;;
7737;SDS011;29398;45.328;5.558;2024-03-02T01:12:38;10.60;;;7.25;;
7737;SDS011;29398;45.328;5.558;2024-03-02T01:13:40;8.73;;;7.70;;
7737;SDS011;29398;45.328;5.558;2024-03-02T01:14:41;11.07;;;7.28;;
7737;SDS011;29398;45.328;5.558;2024-03-02T01:15:44;9.80;;;6.82;;
7737;SDS011;29398;45.328;5.558;2024-03-02T01:16:45;7.47;;;6.43;;
7737;SDS011;29398;45.328;5.558;2024-03-02T01:17:46;8.85;;;6.50;;
7737;SDS011;29398;45.328;5.558;2024-03-02T01:18:48;11.20;;;6.95;;
7737;SDS011;29398;45.328;5.558;2024-03-02T01:19:49;7.53;;;5.88;;
7737;SDS011;29398;45.328;5.558;2024-03-02T01:20:51;8.75;;;5.93;;
7737;SDS011;29398;45.328;5.558;2024-03-02T01:21:52;9.30;;;6.45;;
7737;SDS011;29398;45.328;5.558;2024-03-02T01:22:54;8.50;;;5.63;;
7737;SDS011;29398;45.328;5.558;2024-03-02T01:23:55;6.93;;;5.75;;
7737;SDS011;29398;45.328;5.558;2024-03-02T01:24:58;8.00;;;5.55;;
7737;SDS011;29398;45.328;5.558;2024-03-02T01:26:00;7.80;;;5.70;;
7737;SDS011;29398;45.328;5.558;2024-03-02T01:27:01;7.75;;;5.45;;
7737;SDS011;29398;45.328;5.558;2024-03-02T01:28:03;7.47;;;5.03;;
7737;SDS011;29398;45.328;5.558;2024-03-02T01:29:04;5.30;;;4.75;;
7737;SDS011;29398;45.328;5.558;2024-03-02T01:30:07;5.07;;;4.57;;
7737;SDS011;29398;45.328;5.558;2024-03-02T01:31:08;5.78;;;5.00;;
7737;SDS011;29398;45.328;5.558;2024-03-02T01:32:11;5.50;;;4.60;;
7737;SDS011;29398;45.328;5.558;2024-03-02T01:33:12;6.13;;;4.57;;
7737;SDS011;29398;45.328;5.558;2024-03-02T01:34:13;4.72;;;4.32;;
7737;SDS011;29398;45.328;5.558;2024-03-02T01:35:15;5.25;;;4.75;;
7737;SDS011;29398;45.328;5.558;2024-03-02T01:36:16;5.32;;;4.47;;
7737;SDS011;29398;45.328;5.558;2024-03-02T01:37:18;6.40;;;4.80;;
7737;SDS011;29398;45.328;5.558;2024-03-02T01:38:19;6.28;;;4.57;;
7737;SDS011;29398;45.328;5.558;2024-03-02T01:39:22;6.85;;;4.15;;
7737;SDS011;29398;45.328;5.558;2024-03-02T01:40:24;5.43;;;4.60;;
7737;SDS011;29398;45.328;5.558;2024-03-02T01:41:26;11.52;;;6.82;;
7737;SDS011;29398;45.328;5.558;2024-03-02T01:42:28;9.27;;;7.20;;
7737;SDS011;29398;45.328;5.558;2024-03-02T01:43:30;10.77;;;7.93;;
7737;SDS011;29398;45.328;5.558;2024-03-02T01:44:32;11.07;;;8.25;;
7737;SDS011;29398;45.328;5.558;2024-03-02T01:45:34;11.38;;;8.18;;
7737;SDS011;29398;45.328;5.558;2024-03-02T01:46:37;11.98;;;8.32;;
7737;SDS011;29398;45.328;5.558;2024-03-02T01:47:38;11.50;;;9.20;;
7737;SDS011;29398;45.328;5.558;2024-03-02T01:48:40;15.23;;;9.63;;
7737;SDS011;29398;45.328;5.558;2024-03-02T01:49:41;12.32;;;9.52;;
7737;SDS011;29398;45.328;5.558;2024-03-02T01:50:42;14.32;;;9.80;;
7737;SDS011;29398;45.328;5.558;2024-03-02T01:51:44;12.38;;;9.68;;
7737;SDS011;29398;45.328;5.558;2024-03-02T01:52:46;12.18;;;9.63;;
7737;SDS011;29398;45.328;5.558;2024-03-02T01:53:48;14.15;;;10.13;;
7737;SDS011;29398;45.328;5.558;2024-03-02T01:54:49;12.48;;;10.15;;
7737;SDS011;29398;45.328;5.558;2024-03-02T01:55:51;13.13;;;10.00;;
7737;SDS011;29398;45.328;5.558;2024-03-02T01:56:53;14.93;;;11.02;;
7737;SDS011;29398;45.328;5.558;2024-03-02T01:57:55;11.75;;;9.55;;
7737;SDS011;29398;45.328;5.558;2024-03-02T01:58:56;14.98;;;11.23;;
7737;SDS011;29398;45.328;5.558;2024-03-02T01:59:58;14.95;;;10.32;;
7737;SDS011;29398;45.328;5.558;2024-03-02T02:00:59;14.15;;;10.00;;
7737;SDS011;29398;45.328;5.558;2024-03-02T02:02:01;12.80;;;9.70;;
7737;SDS011;29398;45.328;5.558;2024-03-02T02:03:02;12.23;;;9.73;;
7737;SDS011;29398;45.328;5.558;2024-03-02T02:04:04;12.05;;;9.55;;
7737;SDS011;29398;45.328;5.558;2024-03-02T02:05:06;13.02;;;9.02;;
7737;SDS011;29398;45.328;5.558;2024-03-02T02:06:09;13.15;;;9.45;;
7737;SDS011;29398;45.328;5.558;2024-03-02T02:07:10;12.65;;;9.52;;
7737;SDS011;29398;45.328;5.558;2024-03-02T02:08:14;12.05;;;9.10;;
7737;SDS011;29398;45.328;5.558;2024-03-02T02:09:15;17.65;;;10.80;;
7737;SDS011;29398;45.328;5.558;2024-03-02T02:10:18;17.60;;;10.85;;
7737;SDS011;29398;45.328;5.558;2024-03-02T02:11:21;17.17;;;11.88;;
7737;SDS011;29398;45.328;5.558;2024-03-02T02:12:22;14.57;;;12.05;;
7737;SDS011;29398;45.328;5.558;2024-03-02T02:13:24;16.67;;;11.95;;
7737;SDS011;29398;45.328;5.558;2024-03-02T02:14:25;16.65;;;12.02;;
7737;SDS011;29398;45.328;5.558;2024-03-02T02:15:27;15.38;;;11.90;;
7737;SDS011;29398;45.328;5.558;2024-03-02T02:16:29;18.73;;;11.88;;
7737;SDS011;29398;45.328;5.558;2024-03-02T02:17:31;14.10;;;11.88;;
7737;SDS011;29398;45.328;5.558;2024-03-02T02:18:33;15.73;;;11.70;;
7737;SDS011;29398;45.328;5.558;2024-03-02T02:19:34;16.80;;;11.63;;
7737;SDS011;29398;45.328;5.558;2024-03-02T02:20:36;14.98;;;11.95;;
7737;SDS011;29398;45.328;5.558;2024-03-02T02:21:38;18.10;;;12.38;;
7737;SDS011;29398;45.328;5.558;2024-03-02T02:22:52;16.65;;;12.18;;
7737;SDS011;29398;45.328;5.558;2024-03-02T02:23:56;17.23;;;11.82;;
7737;SDS011;29398;45.328;5.558;2024-03-02T02:24:58;14.55;;;10.88;;
7737;SDS011;29398;45.328;5.558;2024-03-02T02:25:59;16.75;;;12.07;;
7737;SDS011;29398;45.328;5.558;2024-03-02T02:27:00;15.80;;;11.77;;
7737;SDS011;29398;45.328;5.558;2024-03-02T02:28:02;15.25;;;12.05;;
7737;SDS011;29398;45.328;5.558;2024-03-02T02:29:04;16.50;;;11.85;;
7737;SDS011;29398;45.328;5.558;2024-03-02T02:30:05;13.70;;;10.95;;
7737;SDS011;29398;45.328;5.558;2024-03-02T02:31:08;16.88;;;12.45;;
7737;SDS011;29398;45.328;5.558;2024-03-02T02:32:09;17.05;;;11.90;;
7737;SDS011;29398;45.328;5.558;2024-03-02T02:33:11;18.83;;;11.90;;
7737;SDS011;29398;45.328;5.558;2024-03-02T02:34:13;15.30;;;11.40;;
7737;SDS011;29398;45.328;5.558;2024-03-02T02:35:15;14.50;;;10.35;;
7737;SDS011;29398;45.328;5.558;2024-03-02T02:36:16;14.63;;;10.20;;
7737;SDS011;29398;45.328;5.558;2024-03-02T02:37:19;14.48;;;10.30;;
7737;SDS011;29398;45.328;5.558;2024-03-02T02:38:20;12.98;;;9.80;;
7737;SDS011;29398;45.328;5.558;2024-03-02T02:39:22;14.65;;;10.95;;
7737;SDS011;29398;45.328;5.558;2024-03-02T02:40:23;13.55;;;10.73;;
7737;SDS011;29398;45.328;5.558;2024-03-02T02:41:24;17.48;;;11.75;;
7737;SDS011;29398;45.328;5.558;2024-03-02T02:42:26;14.25;;;11.73;;
7737;SDS011;29398;45.328;5.558;2024-03-02T02:43:27;17.10;;;12.43;;
7737;SDS011;29398;45.328;5.558;2024-03-02T02:44:29;15.27;;;11.75;;
7737;SDS011;29398;45.328;5.558;2024-03-02T02:45:30;15.15;;;11.85;;
7737;SDS011;29398;45.328;5.558;2024-03-02T02:46:32;17.10;;;12.65;;
7737;SDS011;29398;45.328;5.558;2024-03-02T02:47:33;17.02;;;12.85;;
7737;SDS011;29398;45.328;5.558;2024-03-02T02:48:35;18.80;;;12.48;;
7737;SDS011;29398;45.328;5.558;2024-03-02T02:49:37;18.75;;;12.32;;
7737;SDS011;29398;45.328;5.558;2024-03-02T02:50:38;19.15;;;13.35;;
7737;SDS011;29398;45.328;5.558;2024-03-02T02:51:40;16.45;;;12.63;;
7737;SDS011;29398;45.328;5.558;2024-03-02T02:52:42;15.98;;;11.95;;
7737;SDS011;29398;45.328;5.558;2024-03-02T02:53:45;19.23;;;12.25;;
7737;SDS011;29398;45.328;5.558;2024-03-02T02:54:45;18.30;;;12.40;;
7737;SDS011;29398;45.328;5.558;2024-03-02T02:55:48;16.35;;;11.68;;
7737;SDS011;29398;45.328;5.558;2024-03-02T02:56:49;17.25;;;11.25;;
7737;SDS011;29398;45.328;5.558;2024-03-02T02:57:51;15.88;;;11.80;;
7737;SDS011;29398;45.328;5.558;2024-03-02T02:58:52;16.55;;;11.55;;
7737;SDS011;29398;45.328;5.558;2024-03-02T02:59:54;16.35;;;11.38;;
7737;SDS011;29398;45.328;5.558;2024-03-02T03:00:55;17.25;;;11.30;;
7737;SDS011;29398;45.328;5.558;2024-03-02T03:01:57;15.30;;;11.10;;
7737;SDS011;29398;45.328;5.558;2024-03-02T03:02:57;17.20;;;11.68;;
7737;SDS011;29398;45.328;5.558;2024-03-02T03:03:59;12.93;;;10.10;;
7737;SDS011;29398;45.328;5.558;2024-03-02T03:05:00;18.17;;;12.75;;
7737;SDS011;29398;45.328;5.558;2024-03-02T03:06:01;16.63;;;12.30;;
7737;SDS011;29398;45.328;5.558;2024-03-02T03:07:04;18.00;;;12.93;;
7737;SDS011;29398;45.328;5.558;2024-03-02T03:08:06;14.15;;;11.45;;
7737;SDS011;29398;45.328;5.558;2024-03-02T03:09:08;16.35;;;12.23;;
7737;SDS011;29398;45.328;5.558;2024-03-02T03:10:11;16.27;;;11.93;;
7737;SDS011;29398;45.328;5.558;2024-03-02T03:11:13;12.45;;;10.00;;
7737;SDS011;29398;45.328;5.558;2024-03-02T03:12:14;10.43;;;8.52;;
7737;SDS011;29398;45.328;5.558;2024-03-02T03:13:16;8.82;;;7.32;;
7737;SDS011;29398;45.328;5.558;2024-03-02T03:14:17;8.40;;;6.43;;
7737;SDS011;29398;45.328;5.558;2024-03-02T03:15:19;8.63;;;6.28;;
7737;SDS011;29398;45.328;5.558;2024-03-02T03:16:20;8.32;;;5.72;;
7737;SDS011;29398;45.328;5.558;2024-03-02T03:17:23;8.98;;;6.00;;
7737;SDS011;29398;45.328;5.558;2024-03-02T03:18:24;6.05;;;5.28;;
7737;SDS011;29398;45.328;5.558;2024-03-02T03:19:26;6.07;;;4.25;;
7737;SDS011;29398;45.328;5.558;2024-03-02T03:20:27;5.85;;;4.38;;
7737;SDS011;29398;45.328;5.558;2024-03-02T03:21:29;5.20;;;4.40;;
7737;SDS011;29398;45.328;5.558;2024-03-02T03:22:30;6.95;;;4.25;;
7737;SDS011;29398;45.328;5.558;2024-03-02T03:23:32;5.95;;;4.22;;
7737;SDS011;29398;45.328;5.558;2024-03-02T03:24:34;5.85;;;4.05;;
7737;SDS011;29398;45.328;5.558;2024-03-02T03:25:35;6.35;;;3.97;;
7737;SDS011;29398;45.328;5.558;2024-03-02T03:26:37;4.30;;;3.70;;
7737;SDS011;29398;45.328;5.558;2024-03-02T03:27:40;4.82;;;3.88;;
7737;SDS011;29398;45.328;5.558;2024-03-02T03:28:42;6.00;;;3.90;;
7737;SDS011;29398;45.328;5.558;2024-03-02T03:29:43;4.60;;;3.72;;
7737;SDS011;29398;45.328;5.558;2024-03-02T03:30:44;5.22;;;3.72;;
7737;SDS011;29398;45.328;5.558;2024-03-02T03:31:46;4.65;;;4.13;;
7737;SDS011;29398;45.328;5.558;2024-03-02T03:32:47;6.20;;;4.30;;
7737;SDS011;29398;45.328;5.558;2024-03-02T03:33:49;5.57;;;3.78;;
7737;SDS011;29398;45.328;5.558;2024-03-02T03:34:50;6.93;;;4.13;;
7737;SDS011;29398;45.328;5.558;2024-03-02T03:35:51;6.18;;;4.55;;
7737;SDS011;29398;45.328;5.558;2024-03-02T03:36:53;7.07;;;4.10;;
7737;SDS011;29398;45.328;5.558;2024-03-02T03:37:54;5.55;;;4.25;;
7737;SDS011;29398;45.328;5.558;2024-03-02T03:38:57;9.38;;;3.65;;
7737;SDS011;29398;45.328;5.558;2024-03-02T03:39:59;5.63;;;3.65;;
7737;SDS011;29398;45.328;5.558;2024-03-02T03:41:00;4.78;;;3.75;;
7737;SDS011;29398;45.328;5.558;2024-03-02T03:42:02;5.57;;;4.05;;
7737;SDS011;29398;45.328;5.558;2024-03-02T03:43:03;4.82;;;3.63;;
7737;SDS011;29398;45.328;5.558;2024-03-02T03:44:04;5.97;;;3.70;;
7737;SDS011;29398;45.328;5.558;2024-03-02T03:45:06;5.97;;;3.50;;
7737;SDS011;29398;45.328;5.558;2024-03-02T03:46:07;5.82;;;3.88;;
7737;SDS011;29398;45.328;5.558;2024-03-02T03:47:09;4.25;;;3.85;;
7737;SDS011;29398;45.328;5.558;2024-03-02T03:48:10;5.55;;;4.15;;
7737;SDS011;29398;45.328;5.558;2024-03-02T03:49:12;6.65;;;4.13;;
7737;SDS011;29398;45.328;5.558;2024-03-02T03:50:13;6.28;;;4.05;;
7737;SDS011;29398;45.328;5.558;2024-03-02T03:51:15;5.55;;;3.88;;
7737;SDS011;29398;45.328;5.558;2024-03-02T03:52:17;5.82;;;3.83;;
7737;SDS011;29398;45.328;5.558;2024-03-02T03:53:17;7.93;;;4.30;;
7737;SDS011;29398;45.328;5.558;2024-03-02T03:54:21;4.85;;;3.72;;
7737;SDS011;29398;45.328;5.558;2024-03-02T03:55:22;4.22;;;3.83;;
7737;SDS011;29398;45.328;5.558;2024-03-02T03:56:24;5.05;;;3.55;;
7737;SDS011;29398;45.328;5.558;2024-03-02T03:57:25;3.20;;;2.90;;
7737;SDS011;29398;45.328;5.558;2024-03-02T03:58:27;4.13;;;3.35;;
7737;SDS011;29398;45.328;5.558;2024-03-02T03:59:28;4.47;;;3.50;;
7737;SDS011;29398;45.328;5.558;2024-03-02T04:00:29;3.65;;;3.03;;
7737;SDS011;29398;45.328;5.558;2024-03-02T04:01:31;4.15;;;3.10;;
7737;SDS011;29398;45.328;5.558;2024-03-02T04:02:32;3.35;;;3.05;;
7737;SDS011;29398;45.328;5.558;2024-03-02T04:03:35;3.15;;;2.67;;
7737;SDS011;29398;45.328;5.558;2024-03-02T04:04:36;2.72;;;2.53;;
7737;SDS011;29398;45.328;5.558;2024-03-02T04:05:38;3.85;;;2.83;;
7737;SDS011;29398;45.328;5.558;2024-03-02T04:06:39;8.95;;;6.78;;
7737;SDS011;29398;45.328;5.558;2024-03-02T04:07:41;12.25;;;8.38;;
7737;SDS011;29398;45.328;5.558;2024-03-02T04:08:43;12.00;;;8.43;;
7737;SDS011;29398;45.328;5.558;2024-03-02T04:09:46;15.75;;;9.65;;
7737;SDS011;29398;45.328;5.558;2024-03-02T04:10:47;13.23;;;10.15;;
7737;SDS011;29398;45.328;5.558;2024-03-02T04:11:49;13.90;;;9.80;;
7737;SDS011;29398;45.328;5.558;2024-03-02T04:12:50;12.93;;;9.18;;
7737;SDS011;29398;45.328;5.558;2024-03-02T04:13:52;13.52;;;9.65;;
7737;SDS011;29398;45.328;5.558;2024-03-02T04:14:53;12.32;;;9.70;;
7737;SDS011;29398;45.328;5.558;2024-03-02T04:15:54;15.32;;;11.05;;
7737;SDS011;29398;45.328;5.558;2024-03-02T04:16:56;15.32;;;11.27;;
7737;SDS011;29398;45.328;5.558;2024-03-02T04:17:57;15.07;;;10.73;;
7737;SDS011;29398;45.328;5.558;2024-03-02T04:18:59;16.88;;;10.65;;
7737;SDS011;29398;45.328;5.558;2024-03-02T04:20:00;17.27;;;10.13;;
7737;SDS011;29398;45.328;5.558;2024-03-02T04:21:04;15.43;;;11.27;;
7737;SDS011;29398;45.328;5.558;2024-03-02T04:22:06;16.45;;;10.63;;
7737;SDS011;29398;45.328;5.558;2024-03-02T04:23:07;14.63;;;10.63;;
7737;SDS011;29398;45.328;5.558;2024-03-02T04:24:09;15.45;;;10.75;;
7737;SDS011;29398;45.328;5.558;2024-03-02T04:25:12;15.48;;;11.48;;
7737;SDS011;29398;45.328;5.558;2024-03-02T04:26:14;15.38;;;10.95;;
7737;SDS011;29398;45.328;5.558;2024-03-02T04:27:15;16.70;;;11.60;;
7737;SDS011;29398;45.328;5.558;2024-03-02T04:28:16;17.35;;;11.70;;
7737;SDS011;29398;45.328;5.558;2024-03-02T04:29:18;18.27;;;11.40;;
7737;SDS011;29398;45.328;5.558;2024-03-02T04:30:19;19.27;;;11.77;;
7737;SDS011;29398;45.328;5.558;2024-03-02T04:31:21;16.48;;;11.30;;
7737;SDS011;29398;45.328;5.558;2024-03-02T04:32:22;19.25;;;11.90;;
7737;SDS011;29398;45.328;5.558;2024-03-02T04:33:24;14.82;;;10.88;;
7737;SDS011;29398;45.328;5.558;2024-03-02T04:34:25;18.27;;;11.43;;
7737;SDS011;29398;45.328;5.558;2024-03-02T04:35:27;16.13;;;11.60;;
7737;SDS011;29398;45.328;5.558;2024-03-02T04:36:29;18.95;;;12.02;;
7737;SDS011;29398;45.328;5.558;2024-03-02T04:37:31;16.13;;;10.90;;
7737;SDS011;29398;45.328;5.558;2024-03-02T04:38:33;16.30;;;10.98;;
7737;SDS011;29398;45.328;5.558;2024-03-02T04:39:35;18.35;;;11.45;;
7737;SDS011;29398;45.328;5.558;2024-03-02T04:40:37;18.52;;;11.43;;
7737;SDS011;29398;45.328;5.558;2024-03-02T04:41:39;12.93;;;10.43;;
7737;SDS011;29398;45.328;5.558;2024-03-02T04:42:40;15.18;;;10.90;;
7737;SDS011;29398;45.328;5.558;2024-03-02T04:43:43;14.20;;;10.65;;
7737;SDS011;29398;45.328;5.558;2024-03-02T04:44:44;13.32;;;10.38;;
7737;SDS011;29398;45.328;5.558;2024-03-02T04:45:46;16.58;;;10.90;;
7737;SDS011;29398;45.328;5.558;2024-03-02T04:46:47;15.10;;;11.02;;
7737;SDS011;29398;45.328;5.558;2024-03-02T04:47:49;14.48;;;10.40;;
7737;SDS011;29398;45.328;5.558;2024-03-02T04:48:50;16.45;;;11.77;;
7737;SDS011;29398;45.328;5.558;2024-03-02T04:49:55;14.20;;;10.43;;
7737;SDS011;29398;45.328;5.558;2024-03-02T04:50:56;14.02;;;10.40;;
7737;SDS011;29398;45.328;5.558;2024-03-02T04:51:58;18.27;;;10.75;;
7737;SDS011;29398;45.328;5.558;2024-03-02T04:52:59;16.13;;;10.43;;
7737;SDS011;29398;45.328;5.558;2024-03-02T04:54:00;15.50;;;11.00;;
7737;SDS011;29398;45.328;5.558;2024-03-02T04:55:02;16.50;;;11.20;;
7737;SDS011;29398;45.328;5.558;2024-03-02T04:56:18;13.25;;;10.00;;
7737;SDS011;29398;45.328;5.558;2024-03-02T04:57:39;17.60;;;11.32;;
7737;SDS011;29398;45.328;5.558;2024-03-02T04:58:41;16.85;;;10.57;;
7737;SDS011;29398;45.328;5.558;2024-03-02T04:59:42;14.82;;;10.80;;
7737;SDS011;29398;45.328;5.558;2024-03-02T05:00:44;16.58;;;11.70;;
7737;SDS011;29398;45.328;5.558;2024-03-02T05:01:46;14.52;;;10.20;;
7737;SDS011;29398;45.328;5.558;2024-03-02T05:02:48;14.35;;;11.13;;
7737;SDS011;29398;45.328;5.558;2024-03-02T05:03:50;17.05;;;10.93;;
7737;SDS011;29398;45.328;5.558;2024-03-02T05:04:51;15.82;;;11.30;;
7737;SDS011;29398;45.328;5.558;2024-03-02T05:05:53;16.10;;;11.75;;
7737;SDS011;29398;45.328;5.558;2024-03-02T05:06:54;18.05;;;11.38;;
7737;SDS011;29398;45.328;5.558;2024-03-02T05:07:58;16.30;;;11.05;;
7737;SDS011;29398;45.328;5.558;2024-03-02T05:08:59;17.70;;;11.38;;
7737;SDS011;29398;45.328;5.558;2024-03-02T05:10:00;16.92;;;11.80;;
7737;SDS011;29398;45.328;5.558;2024-03-02T05:11:02;17.90;;;11.43;;
7737;SDS011;29398;45.328;5.558;2024-03-02T05:12:19;15.27;;;10.93;;
7737;SDS011;29398;45.328;5.558;2024-03-02T05:13:47;13.77;;;9.52;;
7737;SDS011;29398;45.328;5.558;2024-03-02T05:14:48;15.00;;;9.57;;
7737;SDS011;29398;45.328;5.558;2024-03-02T05:15:50;14.23;;;10.07;;
7737;SDS011;29398;45.328;5.558;2024-03-02T05:16:51;13.73;;;8.80;;
7737;SDS011;29398;45.328;5.558;2024-03-02T05:17:53;15.23;;;10.15;;
7737;SDS011;29398;45.328;5.558;2024-03-02T05:18:54;14.98;;;9.70;;
7737;SDS011;29398;45.328;5.558;2024-03-02T05:19:56;14.80;;;10.60;;
7737;SDS011;29398;45.328;5.558;2024-03-02T05:20:57;15.07;;;10.40;;
7737;SDS011;29398;45.328;5.558;2024-03-02T05:21:59;16.30;;;10.65;;
7737;SDS011;29398;45.328;5.558;2024-03-02T05:23:00;13.73;;;10.40;;
7737;SDS011;29398;45.328;5.558;2024-03-02T05:24:02;14.50;;;9.60;;
7737;SDS011;29398;45.328;5.558;2024-03-02T05:25:04;14.40;;;10.40;;
7737;SDS011;29398;45.328;5.558;2024-03-02T05:26:06;13.95;;;9.68;;
7737;SDS011;29398;45.328;5.558;2024-03-02T05:27:08;14.27;;;9.85;;
7737;SDS011;29398;45.328;5.558;2024-03-02T05:28:11;11.75;;;9.32;;
7737;SDS011;29398;45.328;5.558;2024-03-02T05:29:12;15.40;;;10.23;;
7737;SDS011;29398;45.328;5.558;2024-03-02T05:30:15;13.30;;;9.52;;
7737;SDS011;29398;45.328;5.558;2024-03-02T05:31:16;14.95;;;9.52;;
7737;SDS011;29398;45.328;5.558;2024-03-02T05:32:18;13.77;;;9.88;;
7737;SDS011;29398;45.328;5.558;2024-03-02T05:33:19;16.80;;;9.88;;
7737;SDS011;29398;45.328;5.558;2024-03-02T05:34:22;14.05;;;9.70;;
7737;SDS011;29398;45.328;5.558;2024-03-02T05:35:23;15.10;;;9.30;;
7737;SDS011;29398;45.328;5.558;2024-03-02T05:36:25;13.32;;;9.82;;
7737;SDS011;29398;45.328;5.558;2024-03-02T05:37:26;15.15;;;9.98;;
7737;SDS011;29398;45.328;5.558;2024-03-02T05:38:28;13.02;;;9.10;;
7737;SDS011;29398;45.328;5.558;2024-03-02T05:39:29;16.30;;;9.40;;
7737;SDS011;29398;45.328;5.558;2024-03-02T05:40:31;16.33;;;9.10;;
7737;SDS011;29398;45.328;5.558;2024-03-02T05:41:32;14.43;;;9.77;;
7737;SDS011;29398;45.328;5.558;2024-03-02T05:42:35;10.57;;;8.98;;
7737;SDS011;29398;45.328;5.558;2024-03-02T05:43:37;13.93;;;9.52;;
7737;SDS011;29398;45.328;5.558;2024-03-02T05:44:39;12.18;;;8.23;;
7737;SDS011;29398;45.328;5.558;2024-03-02T05:45:40;12.45;;;8.50;;
7737;SDS011;29398;45.328;5.558;2024-03-02T05:46:42;9.30;;;7.28;;
7737;SDS011;29398;45.328;5.558;2024-03-02T05:47:44;10.80;;;7.20;;
7737;SDS011;29398;45.328;5.558;2024-03-02T05:48:45;10.05;;;7.40;;
7737;SDS011;29398;45.328;5.558;2024-03-02T05:49:46;11.93;;;6.05;;
7737;SDS011;29398;45.328;5.558;2024-03-02T05:50:48;9.93;;;5.97;;
7737;SDS011;29398;45.328;5.558;2024-03-02T05:51:49;6.97;;;5.28;;
7737;SDS011;29398;45.328;5.558;2024-03-02T05:52:51;5.78;;;4.70;;
7737;SDS011;29398;45.328;5.558;2024-03-02T05:53:52;6.97;;;4.43;;
7737;SDS011;29398;45.328;5.558;2024-03-02T05:54:54;5.88;;;4.50;;
7737;SDS011;29398;45.328;5.558;2024-03-02T05:55:55;7.03;;;4.45;;
7737;SDS011;29398;45.328;5.558;2024-03-02T05:56:56;5.45;;;4.13;;
7737;SDS011;29398;45.328;5.558;2024-03-02T05:58:16;4.78;;;3.72;;
7737;SDS011;29398;45.328;5.558;2024-03-02T05:59:27;6.18;;;3.72;;
7737;SDS011;29398;45.328;5.558;2024-03-02T06:00:29;4.15;;;3.10;;
7737;SDS011;29398;45.328;5.558;2024-03-02T06:01:31;4.47;;;3.20;;
7737;SDS011;29398;45.328;5.558;2024-03-02T06:02:33;4.13;;;2.95;;
7737;SDS011;29398;45.328;5.558;2024-03-02T06:03:35;4.75;;;2.85;;
7737;SDS011;29398;45.328;5.558;2024-03-02T06:04:37;3.13;;;2.60;;
7737;SDS011;29398;45.328;5.558;2024-03-02T06:05:38;4.43;;;2.75;;
7737;SDS011;29398;45.328;5.558;2024-03-02T06:06:41;3.35;;;2.67;;
7737;SDS011;29398;45.328;5.558;2024-03-02T06:07:42;4.07;;;2.70;;
7737;SDS011;29398;45.328;5.558;2024-03-02T06:08:44;2.70;;;2.25;;
7737;SDS011;29398;45.328;5.558;2024-03-02T06:09:45;3.65;;;2.10;;
7737;SDS011;29398;45.328;5.558;2024-03-02T06:10:48;3.22;;;2.47;;
7737;SDS011;29398;45.328;5.558;2024-03-02T06:11:49;3.92;;;2.75;;
7737;SDS011;29398;45.328;5.558;2024-03-02T06:12:51;2.90;;;2.50;;
7737;SDS011;29398;45.328;5.558;2024-03-02T06:13:52;2.63;;;2.42;;
7737;SDS011;29398;45.328;5.558;2024-03-02T06:14:55;3.05;;;2.35;;
7737;SDS011;29398;45.328;5.558;2024-03-02T06:15:56;3.60;;;2.80;;